Time;durP1;ratioP1;P1;durP2;ratioP2;P2;SDS_P1;SDS_P2;PMS_P1;PMS_P2;Temp;Humidity;BMP_temperature;BMP_pressure;BME280_temperature;BME280_humidity;BME280_pressure;Samples;Min_cycle;Max_cycle;Signal;HPM_P1;HPM_P2
2021/08/16 00:01:17;;;;;;;9.63;5.63;;;;;;;;;;4974987;28;20462;-46
2021/08/16 00:03:43;;;;;;;7.37;5.67;;;;;;;;;;4975120;28;20405;-46
2021/08/16 00:06:09;;;;;;;8.97;5.30;;;;;;;;;;4974990;28;20412;-46
2021/08/16 00:08:35;;;;;;;5.73;4.90;;;;;;;;;;4974805;28;20429;-46
2021/08/16 00:11:03;;;;;;;73.67;11.90;;;;;;;;;;4974743;28;20432;-46
2021/08/16 00:13:30;;;;;;;5.43;4.83;;;;;;;;;;4975162;28;20401;-46
2021/08/16 00:15:55;;;;;;;7.10;4.67;;;;;;;;;;4974882;28;20405;-46
2021/08/16 00:18:21;;;;;;;8.50;4.20;;;;;;;;;;4974593;28;20412;-46
2021/08/16 00:20:47;;;;;;;7.80;4.47;;;;;;;;;;4974578;28;20405;-46
2021/08/16 00:23:13;;;;;;;6.70;4.50;;;;;;;;;;4974684;28;20465;-46
2021/08/16 00:25:39;;;;;;;10.43;5.33;;;;;;;;;;4974664;28;20487;-46
2021/08/16 00:28:05;;;;;;;14.10;4.13;;;;;;;;;;4974453;28;20488;-46
2021/08/16 00:30:31;;;;;;;10.43;4.70;;;;;;;;;;4974456;28;20513;-46
2021/08/16 00:32:57;;;;;;;8.10;4.07;;;;;;;;;;4974496;28;20856;-46
2021/08/16 00:35:23;;;;;;;11.47;4.50;;;;;;;;;;4974379;28;20504;-46
2021/08/16 00:37:49;;;;;;;6.10;3.60;;;;;;;;;;4974462;28;20412;-46
2021/08/16 00:40:16;;;;;;;107.83;21.73;;;;;;;;;;4974148;28;20768;-46
2021/08/16 00:42:42;;;;;;;5.17;4.27;;;;;;;;;;4974191;28;20448;-46
2021/08/16 00:45:09;;;;;;;6.83;3.97;;;;;;;;;;4974388;28;20751;-46
2021/08/16 00:47:35;;;;;;;6.87;4.93;;;;;;;;;;4974151;28;20397;-46
2021/08/16 00:50:01;;;;;;;9.03;4.60;;;;;;;;;;4973793;28;20776;-46
2021/08/16 00:52:28;;;;;;;6.10;4.33;;;;;;;;;;4974245;28;20409;-46
2021/08/16 00:54:54;;;;;;;5.63;4.17;;;;;;;;;;4974133;28;20412;-46
2021/08/16 00:57:21;;;;;;;6.40;4.17;;;;;;;;;;4973976;28;20495;-46
2021/08/16 00:59:47;;;;;;;10.33;5.40;;;;;;;;;;4973683;28;20936;-46
2021/08/16 01:02:13;;;;;;;4.30;3.90;;;;;;;;;;4973193;28;20964;-46
2021/08/16 01:04:39;;;;;;;4.47;3.43;;;;;;;;;;4973121;28;20450;-46
2021/08/16 01:07:05;;;;;;;9.23;4.40;;;;;;;;;;4973442;28;20456;-46
2021/08/16 01:09:32;;;;;;;6.77;4.10;;;;;;;;;;4973066;28;20391;-46
2021/08/16 01:11:57;;;;;;;8.20;4.27;;;;;;;;;;4973697;28;20408;-46
2021/08/16 01:14:23;;;;;;;5.30;4.80;;;;;;;;;;4973680;28;20416;-46
2021/08/16 01:16:49;;;;;;;6.90;3.97;;;;;;;;;;4973699;28;20405;-46
2021/08/16 01:19:22;;;;;;;69.27;18.40;;;;;;;;;;4973263;28;20418;-46
2021/08/16 01:21:48;;;;;;;6.87;3.47;;;;;;;;;;4973604;28;20824;-46
2021/08/16 01:24:15;;;;;;;5.70;3.30;;;;;;;;;;4973552;28;20379;-46
2021/08/16 01:26:41;;;;;;;6.60;3.33;;;;;;;;;;4973572;28;20390;-46
2021/08/16 01:29:17;;;;;;;5.20;3.13;;;;;;;;;;4973132;28;20410;-46
2021/08/16 01:31:43;;;;;;;5.10;4.70;;;;;;;;;;4973341;28;20385;-46
2021/08/16 01:34:09;;;;;;;8.67;3.80;;;;;;;;;;4973315;28;20870;-46
2021/08/16 01:36:35;;;;;;;4.50;3.30;;;;;;;;;;4973367;28;20411;-46
2021/08/16 01:39:01;;;;;;;7.00;3.50;;;;;;;;;;4973056;28;20519;-46
2021/08/16 01:41:27;;;;;;;8.43;4.17;;;;;;;;;;4973153;28;20605;-46
2021/08/16 01:43:53;;;;;;;7.07;3.60;;;;;;;;;;4973184;28;20411;-46
2021/08/16 01:46:24;;;;;;;3.83;3.30;;;;;;;;;;4973102;28;20501;-46
2021/08/16 01:48:50;;;;;;;9.47;4.00;;;;;;;;;;4972717;28;20563;-46
2021/08/16 01:51:16;;;;;;;7.20;3.47;;;;;;;;;;4973032;28;20470;-46
2021/08/16 01:53:42;;;;;;;6.80;3.07;;;;;;;;;;4972955;28;20394;-46
2021/08/16 01:56:08;;;;;;;6.43;3.47;;;;;;;;;;4973031;28;20418;-46
2021/08/16 01:58:33;;;;;;;8.73;3.50;;;;;;;;;;4972666;28;20434;-46
2021/08/16 02:00:59;;;;;;;7.60;3.00;;;;;;;;;;4972789;28;20439;-46
2021/08/16 02:03:25;;;;;;;8.90;2.80;;;;;;;;;;4972789;28;20958;-46
2021/08/16 02:05:51;;;;;;;5.33;2.70;;;;;;;;;;4972807;28;20757;-46
2021/08/16 02:08:17;;;;;;;7.40;3.50;;;;;;;;;;4972642;28;20373;-46
2021/08/16 02:10:43;;;;;;;4.80;2.70;;;;;;;;;;4972055;28;20411;-46
2021/08/16 02:13:11;;;;;;;6.07;3.43;;;;;;;;;;4972732;28;20803;-45
2021/08/16 02:15:37;;;;;;;7.87;2.90;;;;;;;;;;4972641;28;20380;-46
2021/08/16 02:18:03;;;;;;;9.57;3.37;;;;;;;;;;4972687;28;20468;-45
2021/08/16 02:20:29;;;;;;;8.00;3.37;;;;;;;;;;4972288;28;20400;-46
2021/08/16 02:22:55;;;;;;;7.70;2.97;;;;;;;;;;4972559;28;20446;-46
2021/08/16 02:25:21;;;;;;;6.23;2.37;;;;;;;;;;4972519;28;20376;-46
2021/08/16 02:27:49;;;;;;;7.20;2.90;;;;;;;;;;4972456;28;20469;-46
2021/08/16 02:30:16;;;;;;;9.57;3.70;;;;;;;;;;4972107;28;20391;-46
2021/08/16 02:32:42;;;;;;;10.17;3.57;;;;;;;;;;4972431;28;20549;-46
2021/08/16 02:35:08;;;;;;;9.27;3.10;;;;;;;;;;4972755;28;20875;-46
2021/08/16 02:37:34;;;;;;;5.57;2.67;;;;;;;;;;4972564;28;20414;-46
2021/08/16 02:40:00;;;;;;;5.70;3.40;;;;;;;;;;4972179;28;20471;-46
2021/08/16 02:42:26;;;;;;;5.60;2.90;;;;;;;;;;4972459;28;20424;-46
2021/08/16 02:44:52;;;;;;;7.43;2.93;;;;;;;;;;4972325;28;20755;-46
2021/08/16 02:47:21;;;;;;;6.57;3.20;;;;;;;;;;4972240;28;20447;-46
2021/08/16 02:49:48;;;;;;;9.43;3.50;;;;;;;;;;4971802;28;20408;-46
2021/08/16 02:52:14;;;;;;;8.73;2.70;;;;;;;;;;4972285;28;20400;-46
2021/08/16 02:54:40;;;;;;;4.73;2.63;;;;;;;;;;4972126;28;20403;-46
2021/08/16 02:57:06;;;;;;;7.00;3.00;;;;;;;;;;4972078;28;20453;-46
2021/08/16 02:59:32;;;;;;;9.07;3.20;;;;;;;;;;4971822;28;20409;-46
2021/08/16 03:01:58;;;;;;;5.73;2.83;;;;;;;;;;4971864;28;20878;-46
2021/08/16 03:04:24;;;;;;;8.23;3.47;;;;;;;;;;4972100;28;20818;-46
2021/08/16 03:06:50;;;;;;;8.30;3.57;;;;;;;;;;4971928;28;20411;-46
2021/08/16 03:09:16;;;;;;;7.30;3.33;;;;;;;;;;4971732;28;20436;-46
2021/08/16 03:11:42;;;;;;;11.67;3.40;;;;;;;;;;4971648;28;20421;-46
2021/08/16 03:14:08;;;;;;;9.00;3.10;;;;;;;;;;4972029;28;20406;-46
2021/08/16 03:16:33;;;;;;;12.73;4.13;;;;;;;;;;4971929;28;20435;-46
2021/08/16 03:18:59;;;;;;;8.80;4.00;;;;;;;;;;4971660;28;20434;-46
2021/08/16 03:21:25;;;;;;;11.80;3.97;;;;;;;;;;4971701;28;20503;-46
2021/08/16 03:23:51;;;;;;;7.67;4.40;;;;;;;;;;4975641;28;20410;-46
2021/08/16 03:26:17;;;;;;;12.83;3.80;;;;;;;;;;4975663;28;20869;-46
2021/08/16 03:28:43;;;;;;;8.03;3.87;;;;;;;;;;4990108;28;20911;-46
2021/08/16 03:31:10;;;;;;;6.50;3.80;;;;;;;;;;4994729;28;20412;-46
2021/08/16 03:33:35;;;;;;;8.67;4.33;;;;;;;;;;4993582;28;20458;-46
2021/08/16 03:36:01;;;;;;;13.00;4.70;;;;;;;;;;4994308;28;20894;-46
2021/08/16 03:38:27;;;;;;;5.37;4.00;;;;;;;;;;4994709;28;20768;-46
2021/08/16 03:40:53;;;;;;;13.47;5.67;;;;;;;;;;4994897;28;20759;-46
2021/08/16 03:43:19;;;;;;;10.70;5.73;;;;;;;;;;4994796;28;20478;-46
2021/08/16 03:45:46;;;;;;;14.43;6.10;;;;;;;;;;4995078;28;20383;-46
2021/08/16 03:48:12;;;;;;;11.97;5.50;;;;;;;;;;4994773;28;20387;-46
2021/08/16 03:50:37;;;;;;;11.17;5.13;;;;;;;;;;4994696;28;20416;-46
2021/08/16 03:53:05;;;;;;;11.70;5.60;;;;;;;;;;4992964;28;20445;-46
2021/08/16 03:55:31;;;;;;;9.30;5.40;;;;;;;;;;4994672;28;20377;-46
2021/08/16 03:57:57;;;;;;;16.10;5.07;;;;;;;;;;4994664;28;20386;-46
2021/08/16 04:00:23;;;;;;;12.87;6.30;;;;;;;;;;4994376;28;20404;-46
2021/08/16 04:02:49;;;;;;;13.90;6.00;;;;;;;;;;4994835;28;20465;-46
2021/08/16 04:05:15;;;;;;;11.23;5.63;;;;;;;;;;4994596;28;20433;-46
2021/08/16 04:07:42;;;;;;;8.27;5.27;;;;;;;;;;4994515;28;20955;-46
2021/08/16 04:10:09;;;;;;;13.47;5.60;;;;;;;;;;4993930;28;20436;-46
2021/08/16 04:12:35;;;;;;;8.50;5.70;;;;;;;;;;4994225;28;20894;-46
2021/08/16 04:15:00;;;;;;;8.20;5.60;;;;;;;;;;4994226;28;20383;-46
2021/08/16 04:17:26;;;;;;;16.47;6.07;;;;;;;;;;4994345;28;20413;-46
2021/08/16 04:19:52;;;;;;;8.17;6.00;;;;;;;;;;4993869;28;20395;-46
2021/08/16 04:22:18;;;;;;;10.37;6.33;;;;;;;;;;4994082;28;20448;-46
2021/08/16 04:24:44;;;;;;;16.37;6.50;;;;;;;;;;4994067;28;20473;-46
2021/08/16 04:27:10;;;;;;;14.43;6.60;;;;;;;;;;4994099;28;20414;-46
2021/08/16 04:29:36;;;;;;;12.43;6.20;;;;;;;;;;4993581;28;20402;-46
2021/08/16 04:32:02;;;;;;;14.90;5.90;;;;;;;;;;4994075;28;20388;-46
2021/08/16 04:34:28;;;;;;;16.63;6.00;;;;;;;;;;4993489;28;20404;-46
2021/08/16 04:36:54;;;;;;;13.97;5.53;;;;;;;;;;4994452;28;20411;-46
2021/08/16 04:39:20;;;;;;;12.43;4.60;;;;;;;;;;4993397;28;20481;-46
2021/08/16 04:41:48;;;;;;;8.33;5.17;;;;;;;;;;4993653;28;20435;-46
2021/08/16 04:44:14;;;;;;;9.07;4.87;;;;;;;;;;4993732;28;20435;-46
2021/08/16 04:46:40;;;;;;;11.13;4.73;;;;;;;;;;4993557;28;20483;-46
2021/08/16 04:49:05;;;;;;;8.67;4.97;;;;;;;;;;4993767;28;20398;-46
2021/08/16 04:51:31;;;;;;;6.13;4.80;;;;;;;;;;4993336;28;20375;-46
2021/08/16 04:53:57;;;;;;;7.20;5.07;;;;;;;;;;4993519;28;20384;-46
2021/08/16 04:56:23;;;;;;;9.20;5.13;;;;;;;;;;4993394;28;20380;-46
2021/08/16 04:58:49;;;;;;;10.23;4.80;;;;;;;;;;4993119;28;20416;-46
2021/08/16 05:01:15;;;;;;;10.93;6.23;;;;;;;;;;4993227;28;20466;-46
2021/08/16 05:03:41;;;;;;;9.93;5.23;;;;;;;;;;4993221;28;20925;-46
2021/08/16 05:06:08;;;;;;;9.57;5.67;;;;;;;;;;4993156;28;20787;-46
2021/08/16 05:08:36;;;;;;;13.90;5.13;;;;;;;;;;4992815;28;20432;-46
2021/08/16 05:11:04;;;;;;;10.63;4.93;;;;;;;;;;4993197;28;20432;-46
2021/08/16 05:13:30;;;;;;;9.33;5.63;;;;;;;;;;4993145;28;20379;-46
2021/08/16 05:15:56;;;;;;;7.93;5.57;;;;;;;;;;4993091;28;20404;-46
2021/08/16 05:18:22;;;;;;;11.80;4.80;;;;;;;;;;4992740;28;20387;-46
2021/08/16 05:20:49;;;;;;;12.10;4.90;;;;;;;;;;4992388;28;20375;-46
2021/08/16 05:23:17;;;;;;;11.37;5.60;;;;;;;;;;4992384;28;20799;-46
2021/08/16 05:25:43;;;;;;;7.93;5.07;;;;;;;;;;4993183;28;20447;-46
2021/08/16 05:28:09;;;;;;;13.27;4.73;;;;;;;;;;4992707;28;20411;-46
2021/08/16 05:30:35;;;;;;;8.00;4.60;;;;;;;;;;4992427;28;20388;-46
2021/08/16 05:33:01;;;;;;;8.20;4.80;;;;;;;;;;4992811;28;20416;-46
2021/08/16 05:35:27;;;;;;;8.73;5.10;;;;;;;;;;4993024;28;20427;-46
2021/08/16 05:37:55;;;;;;;12.93;5.03;;;;;;;;;;4992728;28;20411;-46
2021/08/16 05:40:21;;;;;;;7.90;5.00;;;;;;;;;;4992134;28;20923;-46
2021/08/16 05:42:47;;;;;;;10.10;4.90;;;;;;;;;;4992591;28;20467;-46
2021/08/16 05:45:13;;;;;;;14.50;6.10;;;;;;;;;;4991777;28;20405;-46
2021/08/16 05:47:39;;;;;;;7.93;5.13;;;;;;;;;;4992576;28;20380;-46
2021/08/16 05:50:05;;;;;;;10.60;5.13;;;;;;;;;;4991828;28;20482;-46
2021/08/16 05:52:31;;;;;;;12.80;4.90;;;;;;;;;;4992931;28;20413;-46
2021/08/16 05:54:57;;;;;;;13.40;5.40;;;;;;;;;;4992658;28;20391;-46
2021/08/16 05:57:23;;;;;;;5.80;4.73;;;;;;;;;;4992429;28;20479;-46
2021/08/16 05:59:49;;;;;;;9.83;6.00;;;;;;;;;;4992288;28;20413;-46
2021/08/16 06:02:15;;;;;;;17.87;5.10;;;;;;;;;;4992429;28;20454;-46
2021/08/16 06:04:41;;;;;;;7.00;4.73;;;;;;;;;;4992263;28;20410;-46
2021/08/16 06:07:07;;;;;;;9.73;4.67;;;;;;;;;;4992111;28;20379;-46
2021/08/16 06:09:33;;;;;;;9.93;4.77;;;;;;;;;;4991917;28;20428;-46
2021/08/16 06:11:59;;;;;;;10.20;5.40;;;;;;;;;;4991936;28;20426;-46
2021/08/16 06:14:25;;;;;;;8.17;4.70;;;;;;;;;;4992023;28;20411;-46
2021/08/16 06:16:51;;;;;;;10.17;5.33;;;;;;;;;;4991891;28;20506;-46
2021/08/16 06:19:17;;;;;;;8.93;5.37;;;;;;;;;;4991663;28;20430;-46
2021/08/16 06:21:43;;;;;;;13.20;4.67;;;;;;;;;;4991842;28;20543;-46
2021/08/16 06:24:12;;;;;;;16.47;5.67;;;;;;;;;;4991824;28;20385;-46
2021/08/16 06:26:38;;;;;;;7.27;5.47;;;;;;;;;;4991904;28;20402;-46
2021/08/16 06:29:05;;;;;;;10.57;4.97;;;;;;;;;;4991448;28;20393;-46
2021/08/16 06:31:31;;;;;;;9.70;5.43;;;;;;;;;;4991685;28;20378;-46
2021/08/16 06:33:57;;;;;;;14.30;6.27;;;;;;;;;;4991639;28;20922;-46
2021/08/16 06:36:23;;;;;;;6.77;5.00;;;;;;;;;;4991829;28;20783;-46
2021/08/16 06:38:50;;;;;;;15.97;5.93;;;;;;;;;;4991370;28;20907;-46
2021/08/16 06:41:16;;;;;;;11.77;6.20;;;;;;;;;;4991417;28;20405;-46
2021/08/16 06:43:43;;;;;;;10.27;6.50;;;;;;;;;;4991372;28;20405;-46
2021/08/16 06:46:09;;;;;;;10.70;5.40;;;;;;;;;;4991345;28;20805;-46
2021/08/16 06:48:35;;;;;;;14.20;5.30;;;;;;;;;;4991209;28;20508;-46
2021/08/16 06:51:01;;;;;;;9.33;4.73;;;;;;;;;;4991290;28;20378;-46
2021/08/16 06:53:27;;;;;;;10.87;5.80;;;;;;;;;;4991547;28;20434;-46
2021/08/16 06:55:53;;;;;;;8.53;5.20;;;;;;;;;;4991144;28;20407;-46
2021/08/16 06:58:19;;;;;;;11.20;5.70;;;;;;;;;;4991163;28;20376;-46
2021/08/16 07:00:46;;;;;;;7.00;4.93;;;;;;;;;;4991165;28;20411;-46
2021/08/16 07:03:12;;;;;;;10.10;6.10;;;;;;;;;;4989476;28;20471;-46
2021/08/16 07:05:45;;;;;;;9.33;4.93;;;;;;;;;;4991293;28;20439;-46
2021/08/16 07:08:14;;;;;;;7.30;4.40;;;;;;;;;;4991151;28;20416;-46
2021/08/16 07:10:40;;;;;;;9.33;4.70;;;;;;;;;;4991039;28;20429;-46
2021/08/16 07:13:06;;;;;;;13.17;4.87;;;;;;;;;;4991178;28;20410;-46
2021/08/16 07:15:32;;;;;;;6.70;5.20;;;;;;;;;;4991055;28;20476;-46
2021/08/16 07:17:58;;;;;;;11.63;4.50;;;;;;;;;;4991108;28;20485;-46
2021/08/16 07:20:24;;;;;;;9.00;4.40;;;;;;;;;;4990852;28;20880;-46
2021/08/16 07:22:50;;;;;;;9.80;4.63;;;;;;;;;;4991098;28;20430;-46
2021/08/16 07:25:16;;;;;;;8.60;4.37;;;;;;;;;;4991071;28;20388;-46
2021/08/16 07:27:42;;;;;;;8.50;5.00;;;;;;;;;;4991032;28;20480;-46
2021/08/16 07:30:08;;;;;;;10.63;4.40;;;;;;;;;;4990923;28;20393;-46
2021/08/16 07:32:34;;;;;;;15.00;4.90;;;;;;;;;;4990984;28;20854;-46
2021/08/16 07:35:00;;;;;;;9.83;4.23;;;;;;;;;;4990517;28;20381;-46
2021/08/16 07:37:26;;;;;;;12.90;4.23;;;;;;;;;;4990455;28;20752;-46
2021/08/16 07:39:52;;;;;;;7.67;4.30;;;;;;;;;;4990008;28;20798;-46
2021/08/16 07:42:20;;;;;;;10.50;4.30;;;;;;;;;;4990245;28;20877;-46
2021/08/16 07:44:46;;;;;;;6.70;3.80;;;;;;;;;;4990468;28;20404;-45
2021/08/16 07:47:12;;;;;;;6.83;4.00;;;;;;;;;;4990306;28;20464;-46
2021/08/16 07:49:38;;;;;;;7.70;3.90;;;;;;;;;;4970399;28;20448;-46
2021/08/16 07:52:04;;;;;;;11.50;4.50;;;;;;;;;;4970875;28;20904;-46
2021/08/16 07:54:31;;;;;;;5.83;3.87;;;;;;;;;;4971203;28;20960;-46
2021/08/16 07:56:58;;;;;;;5.83;4.47;;;;;;;;;;4970902;28;20495;-47
2021/08/16 07:59:24;;;;;;;9.80;4.23;;;;;;;;;;4970821;28;20407;-46
2021/08/16 08:01:50;;;;;;;6.43;4.67;;;;;;;;;;4969869;28;20458;-47
2021/08/16 08:04:16;;;;;;;9.97;3.60;;;;;;;;;;4971322;28;20395;-45
2021/08/16 08:06:42;;;;;;;8.30;3.87;;;;;;;;;;4971297;28;20851;-45
2021/08/16 08:09:08;;;;;;;6.00;3.77;;;;;;;;;;4973478;28;20483;-45
2021/08/16 08:11:34;;;;;;;9.27;3.60;;;;;;;;;;4974595;28;20479;-46
2021/08/16 08:14:00;;;;;;;6.20;3.80;;;;;;;;;;4974986;28;20412;-46
2021/08/16 08:16:26;;;;;;;7.50;4.10;;;;;;;;;;4974877;28;20450;-47
2021/08/16 08:18:52;;;;;;;7.57;3.90;;;;;;;;;;4974785;28;20490;-46
2021/08/16 08:21:18;;;;;;;7.40;3.80;;;;;;;;;;4974578;28;20388;-46
2021/08/16 08:23:44;;;;;;;6.60;4.00;;;;;;;;;;4974741;28;20542;-45
2021/08/16 08:26:11;;;;;;;5.70;3.60;;;;;;;;;;4974324;28;20396;-46
2021/08/16 08:28:37;;;;;;;11.30;4.30;;;;;;;;;;4974238;28;20428;-45
2021/08/16 08:31:03;;;;;;;8.70;3.50;;;;;;;;;;4974366;28;20419;-46
2021/08/16 08:33:29;;;;;;;8.00;3.57;;;;;;;;;;4974469;28;20392;-45
2021/08/16 08:35:55;;;;;;;6.70;4.30;;;;;;;;;;4974770;28;20480;-45
2021/08/16 08:38:21;;;;;;;8.90;4.03;;;;;;;;;;4974225;28;20383;-45
2021/08/16 08:40:49;;;;;;;5.80;3.80;;;;;;;;;;4961000;28;20389;-46
2021/08/16 08:43:15;;;;;;;5.50;3.40;;;;;;;;;;4955027;29;20437;-47
2021/08/16 08:45:42;;;;;;;5.17;4.67;;;;;;;;;;4955142;29;20878;-47
2021/08/16 08:48:08;;;;;;;10.23;5.53;;;;;;;;;;4954834;29;20746;-45
2021/08/16 08:50:34;;;;;;;9.63;4.30;;;;;;;;;;4954893;29;20382;-45
2021/08/16 08:53:03;;;;;;;6.23;3.37;;;;;;;;;;4968427;28;20500;-44
2021/08/16 08:55:29;;;;;;;19.70;11.20;;;;;;;;;;4974127;28;20404;-45
2021/08/16 08:57:58;;;;;;;6.13;3.60;;;;;;;;;;4974472;28;20984;-45
2021/08/16 09:00:24;;;;;;;11.40;7.60;;;;;;;;;;4973939;28;20434;-45
2021/08/16 09:02:56;;;;;;;10.83;5.30;;;;;;;;;;4973975;28;20456;-45
2021/08/16 09:05:23;;;;;;;7.87;3.80;;;;;;;;;;4974006;28;20450;-45
2021/08/16 09:07:49;;;;;;;10.73;4.33;;;;;;;;;;4973925;28;20406;-46
2021/08/16 09:10:15;;;;;;;5.90;4.47;;;;;;;;;;4973754;28;20432;-46
2021/08/16 09:12:42;;;;;;;6.53;3.90;;;;;;;;;;4973789;28;20800;-46
2021/08/16 09:15:28;;;;;;;7.60;3.30;;;;;;;;;;4973844;28;20410;-45
2021/08/16 09:17:54;;;;;;;8.10;3.40;;;;;;;;;;4973900;28;20406;-45
2021/08/16 09:20:22;;;;;;;7.80;3.60;;;;;;;;;;4971962;28;20434;-45
2021/08/16 09:23:13;;;;;;;7.53;4.23;;;;;;;;;;4973507;28;20817;-45
2021/08/16 09:25:40;;;;;;;5.70;3.20;;;;;;;;;;4972995;28;20417;-45
2021/08/16 09:28:07;;;;;;;6.23;3.70;;;;;;;;;;4954151;29;20402;-48
2021/08/16 09:30:34;;;;;;;9.13;3.60;;;;;;;;;;4954089;29;20783;-46
2021/08/16 09:33:12;;;;;;;7.20;3.27;;;;;;;;;;4955082;28;20441;-45
2021/08/16 09:35:55;;;;;;;4.90;3.10;;;;;;;;;;4985754;28;20498;-45
2021/08/16 09:38:39;;;;;;;6.73;2.77;;;;;;;;;;4957362;28;20930;-45
2021/08/16 09:41:06;;;;;;;6.63;3.70;;;;;;;;;;4973492;28;20402;-45
2021/08/16 09:43:33;;;;;;;11.40;4.40;;;;;;;;;;4973286;28;20978;-47
2021/08/16 09:46:00;;;;;;;6.03;3.50;;;;;;;;;;4973251;28;20789;-46
2021/08/16 09:48:26;;;;;;;11.60;3.60;;;;;;;;;;4972974;28;20421;-45
2021/08/16 09:50:56;;;;;;;4.80;3.60;;;;;;;;;;4973431;28;20416;-46
2021/08/16 09:53:24;;;;;;;6.40;3.73;;;;;;;;;;4973303;28;20477;-46
2021/08/16 09:55:51;;;;;;;6.20;3.33;;;;;;;;;;4972953;28;20494;-45
2021/08/16 09:58:18;;;;;;;4.33;3.70;;;;;;;;;;4972715;28;20428;-45
2021/08/16 10:00:45;;;;;;;9.57;3.60;;;;;;;;;;4972811;28;20390;-45
2021/08/16 10:03:11;;;;;;;5.23;3.47;;;;;;;;;;4972926;28;20504;-47
2021/08/16 10:05:42;;;;;;;5.30;3.70;;;;;;;;;;4972428;28;20429;-46
2021/08/16 10:08:12;;;;;;;6.80;3.50;;;;;;;;;;4972698;28;20382;-44
2021/08/16 10:10:38;;;;;;;6.70;3.30;;;;;;;;;;4972445;28;20900;-46
2021/08/16 10:13:05;;;;;;;15.80;9.33;;;;;;;;;;4972882;28;20427;-45
2021/08/16 10:15:35;;;;;;;6.00;3.90;;;;;;;;;;4972661;28;20794;-47
2021/08/16 10:18:01;;;;;;;6.10;3.60;;;;;;;;;;4972732;28;20414;-44
2021/08/16 10:20:30;;;;;;;12.20;4.30;;;;;;;;;;4972267;28;20859;-47
2021/08/16 10:22:56;;;;;;;9.90;4.10;;;;;;;;;;4972391;28;20469;-45
2021/08/16 10:25:22;;;;;;;9.00;4.50;;;;;;;;;;4972795;28;20402;-46
2021/08/16 10:27:49;;;;;;;8.50;4.40;;;;;;;;;;4972461;28;20415;-46
2021/08/16 10:30:16;;;;;;;8.17;4.67;;;;;;;;;;4972221;28;20516;-47
2021/08/16 10:32:43;;;;;;;8.43;5.00;;;;;;;;;;4972109;28;20396;-46
2021/08/16 10:35:10;;;;;;;12.10;5.10;;;;;;;;;;4972381;28;20380;-46
2021/08/16 10:37:37;;;;;;;5.20;4.67;;;;;;;;;;4972104;28;20830;-45
2021/08/16 10:40:13;;;;;;;7.63;5.20;;;;;;;;;;4972200;28;20454;-46
2021/08/16 10:42:39;;;;;;;5.17;4.57;;;;;;;;;;4972178;28;20940;-45
2021/08/16 10:45:07;;;;;;;6.23;3.90;;;;;;;;;;4972280;28;20409;-46
2021/08/16 10:47:34;;;;;;;5.63;4.40;;;;;;;;;;4972245;28;20475;-45
2021/08/16 10:50:11;;;;;;;6.00;4.53;;;;;;;;;;4971848;28;20424;-46
2021/08/16 10:52:38;;;;;;;9.63;4.90;;;;;;;;;;4972231;28;20395;-46
2021/08/16 10:55:25;;;;;;;9.00;3.67;;;;;;;;;;4972196;28;20422;-46
2021/08/16 10:57:51;;;;;;;8.40;3.33;;;;;;;;;;4972103;28;20902;-45
2021/08/16 11:00:18;;;;;;;7.37;3.70;;;;;;;;;;4971715;28;20435;-46
2021/08/16 11:02:44;;;;;;;3.70;3.40;;;;;;;;;;4971862;28;20494;-47
2021/08/16 11:05:11;;;;;;;2.63;2.53;;;;;;;;;;4972098;28;20373;-48
2021/08/16 11:07:37;;;;;;;102.37;59.47;;;;;;;;;;4971937;28;20392;-45
2021/08/16 11:10:05;;;;;;;8.10;2.97;;;;;;;;;;4971516;28;20460;-48
2021/08/16 11:12:49;;;;;;;5.63;3.23;;;;;;;;;;4953351;28;20429;-47
2021/08/16 11:15:19;;;;;;;16.97;10.60;;;;;;;;;;4952690;29;20445;-46
2021/08/16 11:17:46;;;;;;;10.53;5.93;;;;;;;;;;4961542;28;20398;-46
2021/08/16 11:20:15;;;;;;;5.60;4.50;;;;;;;;;;4971554;28;20401;-46
2021/08/16 11:22:52;;;;;;;4.20;3.60;;;;;;;;;;4971631;28;20451;-46
2021/08/16 11:25:18;;;;;;;5.53;4.70;;;;;;;;;;4971767;28;20460;-46
2021/08/16 11:27:44;;;;;;;7.50;4.00;;;;;;;;;;4972021;28;20451;-46
2021/08/16 11:30:13;;;;;;;5.47;4.53;;;;;;;;;;4961048;28;20402;-49
2021/08/16 11:32:40;;;;;;;5.13;3.73;;;;;;;;;;4952779;29;20381;-46
2021/08/16 11:35:07;;;;;;;8.37;4.97;;;;;;;;;;4969546;28;20397;-46
2021/08/16 11:37:34;;;;;;;6.20;4.13;;;;;;;;;;4960907;28;20380;-46
2021/08/16 11:40:01;;;;;;;9.30;4.43;;;;;;;;;;4964759;28;20741;-46
2021/08/16 11:42:27;;;;;;;7.93;4.20;;;;;;;;;;4965576;28;20472;-45
2021/08/16 11:45:01;;;;;;;7.70;5.40;;;;;;;;;;4967393;28;21023;-46
2021/08/16 11:47:32;;;;;;;8.90;5.30;;;;;;;;;;4963879;28;20611;-46
2021/08/16 11:49:59;;;;;;;7.80;5.00;;;;;;;;;;4966087;28;20906;-46
2021/08/16 11:52:26;;;;;;;8.50;5.30;;;;;;;;;;4960361;28;20396;-46
2021/08/16 11:54:52;;;;;;;7.63;5.00;;;;;;;;;;4953633;29;20464;-46
2021/08/16 11:57:21;;;;;;;5.83;4.77;;;;;;;;;;4954084;29;20386;-46
2021/08/16 11:59:51;;;;;;;7.83;5.60;;;;;;;;;;4954072;28;20408;-45
2021/08/16 12:02:17;;;;;;;9.43;6.00;;;;;;;;;;4953987;29;20459;-46
2021/08/16 12:04:44;;;;;;;14.00;6.53;;;;;;;;;;4953810;29;20389;-46
2021/08/16 12:07:10;;;;;;;18.93;14.63;;;;;;;;;;4962807;28;20401;-46
2021/08/16 12:09:36;;;;;;;9.67;7.17;;;;;;;;;;4972405;28;21216;-46
2021/08/16 12:12:05;;;;;;;15.80;11.23;;;;;;;;;;4974628;28;20456;-46
2021/08/16 12:14:32;;;;;;;12.57;6.23;;;;;;;;;;4974765;28;20496;-46
2021/08/16 12:16:58;;;;;;;9.10;6.20;;;;;;;;;;4974612;28;20401;-46
2021/08/16 12:19:24;;;;;;;8.20;7.27;;;;;;;;;;4974409;28;20510;-45
2021/08/16 12:22:05;;;;;;;9.07;7.13;;;;;;;;;;4974548;28;20952;-45
2021/08/16 12:24:32;;;;;;;8.30;7.03;;;;;;;;;;4974791;28;20889;-46
2021/08/16 12:26:59;;;;;;;12.70;7.27;;;;;;;;;;4974649;28;20792;-45
2021/08/16 12:29:27;;;;;;;12.10;8.30;;;;;;;;;;4974316;28;20426;-45
2021/08/16 12:31:53;;;;;;;15.07;7.87;;;;;;;;;;4974877;28;20422;-45
2021/08/16 12:34:19;;;;;;;8.60;6.90;;;;;;;;;;4974381;28;20494;-45
2021/08/16 12:36:54;;;;;;;10.50;7.33;;;;;;;;;;4974655;28;20394;-45
2021/08/16 12:39:20;;;;;;;11.17;7.17;;;;;;;;;;4974315;28;20428;-47
2021/08/16 12:41:46;;;;;;;11.87;7.03;;;;;;;;;;4974359;28;20385;-46
2021/08/16 12:44:19;;;;;;;13.70;7.40;;;;;;;;;;4974378;28;20413;-45
2021/08/16 12:46:45;;;;;;;13.53;7.27;;;;;;;;;;4974470;28;20429;-44
2021/08/16 12:49:21;;;;;;;16.90;8.10;;;;;;;;;;4974261;28;20420;-45
2021/08/16 12:51:47;;;;;;;10.60;7.30;;;;;;;;;;4978300;28;20411;-45
2021/08/16 12:54:13;;;;;;;13.20;8.20;;;;;;;;;;4991862;28;20494;-45
2021/08/16 12:56:39;;;;;;;13.67;7.50;;;;;;;;;;4992767;28;20474;-45
2021/08/16 12:59:05;;;;;;;10.03;7.90;;;;;;;;;;4991728;28;20402;-45
2021/08/16 13:01:31;;;;;;;11.43;8.17;;;;;;;;;;4993403;28;20457;-45
2021/08/16 13:03:57;;;;;;;20.93;9.30;;;;;;;;;;4993162;28;20542;-44
2021/08/16 13:06:23;;;;;;;15.60;9.47;;;;;;;;;;4993415;28;20458;-45
2021/08/16 13:08:49;;;;;;;12.17;8.43;;;;;;;;;;4993156;28;20506;-45
2021/08/16 13:11:15;;;;;;;12.97;9.37;;;;;;;;;;4993105;28;20399;-45
2021/08/16 13:13:42;;;;;;;15.80;9.53;;;;;;;;;;4993423;28;20751;-46
2021/08/16 13:16:09;;;;;;;13.97;8.43;;;;;;;;;;4994054;28;20548;-45
2021/08/16 13:18:35;;;;;;;18.33;9.97;;;;;;;;;;4992918;28;20432;-45
2021/08/16 13:21:01;;;;;;;13.77;10.13;;;;;;;;;;4993049;28;20387;-45
2021/08/16 13:23:28;;;;;;;14.70;9.40;;;;;;;;;;4993003;28;20469;-45
2021/08/16 13:25:54;;;;;;;10.93;9.30;;;;;;;;;;4993050;28;20406;-47
2021/08/16 13:28:20;;;;;;;15.00;9.80;;;;;;;;;;4992498;28;20710;-46
2021/08/16 13:30:46;;;;;;;14.40;9.80;;;;;;;;;;4992888;28;20516;-46
2021/08/16 13:33:13;;;;;;;11.10;9.07;;;;;;;;;;4992841;28;20383;-45
2021/08/16 13:35:39;;;;;;;11.70;8.40;;;;;;;;;;4992891;28;20472;-45
2021/08/16 13:38:05;;;;;;;16.07;8.97;;;;;;;;;;4992741;28;20729;-46
2021/08/16 13:40:32;;;;;;;14.73;10.10;;;;;;;;;;4992617;28;20886;-45
2021/08/16 13:42:58;;;;;;;17.60;9.63;;;;;;;;;;4992539;28;20437;-44
2021/08/16 13:45:24;;;;;;;14.00;9.80;;;;;;;;;;4992546;28;20757;-45
2021/08/16 13:47:51;;;;;;;12.47;8.77;;;;;;;;;;4992741;28;20405;-45
2021/08/16 13:50:17;;;;;;;12.63;9.50;;;;;;;;;;4992321;28;20434;-45
2021/08/16 13:52:43;;;;;;;11.40;8.70;;;;;;;;;;4992584;28;20488;-45
2021/08/16 13:55:09;;;;;;;12.53;9.70;;;;;;;;;;4992415;28;20447;-45
2021/08/16 13:57:35;;;;;;;14.00;9.63;;;;;;;;;;4992407;28;20923;-47
2021/08/16 14:00:01;;;;;;;11.80;9.10;;;;;;;;;;4992087;28;20436;-44
2021/08/16 14:02:27;;;;;;;14.87;11.07;;;;;;;;;;4992310;28;20457;-44
2021/08/16 14:04:53;;;;;;;17.43;10.77;;;;;;;;;;4992241;28;20385;-45
2021/08/16 14:07:19;;;;;;;13.53;11.00;;;;;;;;;;4991598;28;20489;-45
2021/08/16 14:09:45;;;;;;;14.03;9.43;;;;;;;;;;4992030;28;20404;-45
2021/08/16 14:12:11;;;;;;;11.33;7.43;;;;;;;;;;4991962;28;20792;-45
2021/08/16 14:14:37;;;;;;;8.93;6.97;;;;;;;;;;4992266;28;20859;-43
2021/08/16 14:17:03;;;;;;;9.10;4.90;;;;;;;;;;4992084;28;20483;-45
2021/08/16 14:19:30;;;;;;;6.70;4.67;;;;;;;;;;4991789;28;20460;-45
2021/08/16 14:21:56;;;;;;;7.70;4.73;;;;;;;;;;4992007;28;20481;-47
2021/08/16 14:24:22;;;;;;;11.90;4.67;;;;;;;;;;4992032;28;20483;-47
2021/08/16 14:26:48;;;;;;;10.67;4.70;;;;;;;;;;4991995;28;20411;-48
2021/08/16 14:29:14;;;;;;;5.93;3.27;;;;;;;;;;4991819;28;20406;-46
2021/08/16 14:31:40;;;;;;;6.60;3.60;;;;;;;;;;4991783;28;20462;-44
2021/08/16 14:34:08;;;;;;;7.60;3.83;;;;;;;;;;4991950;28;20466;-45
2021/08/16 14:36:34;;;;;;;7.70;2.80;;;;;;;;;;4991832;28;20436;-44